sensor_id;sensor_type;location;lat;lon;timestamp;temperature;humidity
43458;DHT22;29046;54.184;18.680;2023-02-26T00:01:27;0.70;99.90
43458;DHT22;29046;54.184;18.680;2023-02-26T00:03:57;0.70;99.90
43458;DHT22;29046;54.184;18.680;2023-02-26T00:06:25;0.70;99.90
43458;DHT22;29046;54.184;18.680;2023-02-26T00:08:53;0.70;99.90
43458;DHT22;29046;54.184;18.680;2023-02-26T00:11:22;0.80;99.90
43458;DHT22;29046;54.184;18.680;2023-02-26T00:13:50;0.80;99.90
43458;DHT22;29046;54.184;18.680;2023-02-26T00:18:48;0.60;99.90
43458;DHT22;29046;54.184;18.680;2023-02-26T00:21:17;0.60;99.90
43458;DHT22;29046;54.184;18.680;2023-02-26T00:23:44;0.60;99.90
43458;DHT22;29046;54.184;18.680;2023-02-26T00:26:12;0.60;99.90
43458;DHT22;29046;54.184;18.680;2023-02-26T00:28:40;0.50;99.90
43458;DHT22;29046;54.184;18.680;2023-02-26T00:31:07;0.50;99.90
43458;DHT22;29046;54.184;18.680;2023-02-26T00:33:35;0.50;99.90
43458;DHT22;29046;54.184;18.680;2023-02-26T00:36:24;0.50;99.90
43458;DHT22;29046;54.184;18.680;2023-02-26T00:39:12;0.40;99.90
43458;DHT22;29046;54.184;18.680;2023-02-26T00:41:41;0.40;99.90
43458;DHT22;29046;54.184;18.680;2023-02-26T00:44:09;0.40;99.90
43458;DHT22;29046;54.184;18.680;2023-02-26T00:46:51;0.40;99.90
43458;DHT22;29046;54.184;18.680;2023-02-26T00:52:05;0.30;99.90
43458;DHT22;29046;54.184;18.680;2023-02-26T00:54:36;0.20;99.90
43458;DHT22;29046;54.184;18.680;2023-02-26T00:57:03;0.20;99.90
43458;DHT22;29046;54.184;18.680;2023-02-26T00:59:32;0.20;99.90
43458;DHT22;29046;54.184;18.680;2023-02-26T01:01:59;0.30;99.90
43458;DHT22;29046;54.184;18.680;2023-02-26T01:04:26;0.30;99.90
43458;DHT22;29046;54.184;18.680;2023-02-26T01:06:55;0.40;99.90
43458;DHT22;29046;54.184;18.680;2023-02-26T01:09:32;0.40;99.90
43458;DHT22;29046;54.184;18.680;2023-02-26T01:12:10;0.50;99.90
43458;DHT22;29046;54.184;18.680;2023-02-26T01:14:39;0.60;99.90
43458;DHT22;29046;54.184;18.680;2023-02-26T01:20:08;0.50;99.90
43458;DHT22;29046;54.184;18.680;2023-02-26T01:22:43;0.50;99.90
43458;DHT22;29046;54.184;18.680;2023-02-26T01:25:20;0.50;99.90
43458;DHT22;29046;54.184;18.680;2023-02-26T01:27:49;0.50;99.90
43458;DHT22;29046;54.184;18.680;2023-02-26T01:30:17;0.50;99.90
43458;DHT22;29046;54.184;18.680;2023-02-26T01:33:04;0.50;99.90
43458;DHT22;29046;54.184;18.680;2023-02-26T01:36:16;0.50;99.90
43458;DHT22;29046;54.184;18.680;2023-02-26T01:39:01;0.50;99.90
43458;DHT22;29046;54.184;18.680;2023-02-26T01:49:25;0.50;99.90
43458;DHT22;29046;54.184;18.680;2023-02-26T01:51:55;0.50;99.90
43458;DHT22;29046;54.184;18.680;2023-02-26T01:54:30;0.60;99.90
43458;DHT22;29046;54.184;18.680;2023-02-26T01:57:02;0.50;99.90
43458;DHT22;29046;54.184;18.680;2023-02-26T01:59:38;0.50;99.90
43458;DHT22;29046;54.184;18.680;2023-02-26T02:02:09;0.50;99.90
43458;DHT22;29046;54.184;18.680;2023-02-26T02:04:37;0.50;99.90
43458;DHT22;29046;54.184;18.680;2023-02-26T02:07:06;0.50;99.90
43458;DHT22;29046;54.184;18.680;2023-02-26T02:09:34;0.50;99.90
43458;DHT22;29046;54.184;18.680;2023-02-26T02:23:14;0.60;99.90
43458;DHT22;29046;54.184;18.680;2023-02-26T02:26:08;0.70;99.90
43458;DHT22;29046;54.184;18.680;2023-02-26T02:31:45;0.70;99.90
43458;DHT22;29046;54.184;18.680;2023-02-26T02:34:32;0.60;99.90
43458;DHT22;29046;54.184;18.680;2023-02-26T02:37:09;0.50;99.90
43458;DHT22;29046;54.184;18.680;2023-02-26T02:39:48;0.40;99.90
43458;DHT22;29046;54.184;18.680;2023-02-26T02:43:38;0.40;99.90
43458;DHT22;29046;54.184;18.680;2023-02-26T02:46:06;0.40;99.90
43458;DHT22;29046;54.184;18.680;2023-02-26T02:48:40;0.40;99.90
43458;DHT22;29046;54.184;18.680;2023-02-26T02:51:13;0.50;99.90
43458;DHT22;29046;54.184;18.680;2023-02-26T02:53:50;0.60;99.90
43458;DHT22;29046;54.184;18.680;2023-02-26T03:01:48;0.40;99.90
43458;DHT22;29046;54.184;18.680;2023-02-26T03:04:16;0.40;99.90
43458;DHT22;29046;54.184;18.680;2023-02-26T03:06:44;0.40;99.90
43458;DHT22;29046;54.184;18.680;2023-02-26T03:09:12;0.40;99.90
43458;DHT22;29046;54.184;18.680;2023-02-26T03:11:39;0.40;99.90
43458;DHT22;29046;54.184;18.680;2023-02-26T03:14:07;0.40;99.90
43458;DHT22;29046;54.184;18.680;2023-02-26T03:20:11;0.60;99.90
43458;DHT22;29046;54.184;18.680;2023-02-26T03:23:04;0.60;99.90
43458;DHT22;29046;54.184;18.680;2023-02-26T03:25:59;0.70;99.90
43458;DHT22;29046;54.184;18.680;2023-02-26T03:28:40;0.60;99.90
43458;DHT22;29046;54.184;18.680;2023-02-26T03:31:29;0.60;99.90
43458;DHT22;29046;54.184;18.680;2023-02-26T03:34:12;0.60;99.90
43458;DHT22;29046;54.184;18.680;2023-02-26T03:39:34;0.50;99.90
43458;DHT22;29046;54.184;18.680;2023-02-26T03:45:14;0.50;99.90
43458;DHT22;29046;54.184;18.680;2023-02-26T03:47:44;0.50;99.90
43458;DHT22;29046;54.184;18.680;2023-02-26T03:50:21;0.50;99.90
43458;DHT22;29046;54.184;18.680;2023-02-26T03:52:51;0.50;99.90
43458;DHT22;29046;54.184;18.680;2023-02-26T03:55:33;0.40;99.90
43458;DHT22;29046;54.184;18.680;2023-02-26T03:58:01;0.40;99.90
43458;DHT22;29046;54.184;18.680;2023-02-26T04:00:30;0.40;99.90
43458;DHT22;29046;54.184;18.680;2023-02-26T04:03:02;0.40;99.90
43458;DHT22;29046;54.184;18.680;2023-02-26T04:05:36;0.30;99.90
43458;DHT22;29046;54.184;18.680;2023-02-26T04:08:04;0.30;99.90
43458;DHT22;29046;54.184;18.680;2023-02-26T04:10:44;0.30;99.90
43458;DHT22;29046;54.184;18.680;2023-02-26T04:13:11;0.40;99.90
43458;DHT22;29046;54.184;18.680;2023-02-26T04:15:38;0.40;99.90
43458;DHT22;29046;54.184;18.680;2023-02-26T04:18:05;0.40;99.90
43458;DHT22;29046;54.184;18.680;2023-02-26T04:20:33;0.50;99.90
43458;DHT22;29046;54.184;18.680;2023-02-26T04:23:00;0.50;99.90
43458;DHT22;29046;54.184;18.680;2023-02-26T04:25:27;0.50;99.90
43458;DHT22;29046;54.184;18.680;2023-02-26T04:27:54;0.50;99.90
43458;DHT22;29046;54.184;18.680;2023-02-26T04:30:22;0.40;99.90
43458;DHT22;29046;54.184;18.680;2023-02-26T04:32:49;0.40;99.90
43458;DHT22;29046;54.184;18.680;2023-02-26T04:35:16;0.40;99.90
43458;DHT22;29046;54.184;18.680;2023-02-26T04:37:43;0.50;99.90
43458;DHT22;29046;54.184;18.680;2023-02-26T04:40:11;0.50;99.90
43458;DHT22;29046;54.184;18.680;2023-02-26T04:42:38;0.50;99.90
43458;DHT22;29046;54.184;18.680;2023-02-26T04:45:06;0.40;99.90
43458;DHT22;29046;54.184;18.680;2023-02-26T04:47:34;0.40;99.90
43458;DHT22;29046;54.184;18.680;2023-02-26T04:50:01;0.50;99.90
43458;DHT22;29046;54.184;18.680;2023-02-26T04:52:28;0.50;99.90
43458;DHT22;29046;54.184;18.680;2023-02-26T04:54:55;0.50;99.90
43458;DHT22;29046;54.184;18.680;2023-02-26T04:57:22;0.40;99.90
43458;DHT22;29046;54.184;18.680;2023-02-26T04:59:50;0.20;99.90
43458;DHT22;29046;54.184;18.680;2023-02-26T05:02:17;0.20;99.90
43458;DHT22;29046;54.184;18.680;2023-02-26T05:04:45;0.20;99.90
43458;DHT22;29046;54.184;18.680;2023-02-26T05:07:12;0.20;99.90
43458;DHT22;29046;54.184;18.680;2023-02-26T05:09:39;0.30;99.90
43458;DHT22;29046;54.184;18.680;2023-02-26T05:12:06;0.40;99.90
43458;DHT22;29046;54.184;18.680;2023-02-26T05:14:34;0.50;99.90
43458;DHT22;29046;54.184;18.680;2023-02-26T05:17:01;0.50;99.90
43458;DHT22;29046;54.184;18.680;2023-02-26T05:19:28;0.60;99.90
43458;DHT22;29046;54.184;18.680;2023-02-26T05:21:55;0.70;99.90
43458;DHT22;29046;54.184;18.680;2023-02-26T05:24:22;0.70;99.90
43458;DHT22;29046;54.184;18.680;2023-02-26T05:26:49;0.80;99.90
43458;DHT22;29046;54.184;18.680;2023-02-26T05:29:17;0.90;99.90
43458;DHT22;29046;54.184;18.680;2023-02-26T05:31:44;1.00;99.90
43458;DHT22;29046;54.184;18.680;2023-02-26T05:34:11;1.00;99.90
43458;DHT22;29046;54.184;18.680;2023-02-26T05:36:38;1.00;99.90
43458;DHT22;29046;54.184;18.680;2023-02-26T05:39:06;1.20;99.90
43458;DHT22;29046;54.184;18.680;2023-02-26T05:41:33;1.20;99.90
43458;DHT22;29046;54.184;18.680;2023-02-26T05:44:00;1.20;99.90
43458;DHT22;29046;54.184;18.680;2023-02-26T05:46:28;1.20;99.90
43458;DHT22;29046;54.184;18.680;2023-02-26T05:48:55;1.20;99.90
43458;DHT22;29046;54.184;18.680;2023-02-26T05:51:22;1.20;99.90
43458;DHT22;29046;54.184;18.680;2023-02-26T05:53:50;1.10;99.90
43458;DHT22;29046;54.184;18.680;2023-02-26T05:56:17;1.20;99.90
43458;DHT22;29046;54.184;18.680;2023-02-26T05:58:44;1.30;99.90
43458;DHT22;29046;54.184;18.680;2023-02-26T06:01:11;1.30;99.90
43458;DHT22;29046;54.184;18.680;2023-02-26T06:03:39;1.40;99.90
43458;DHT22;29046;54.184;18.680;2023-02-26T06:06:11;1.40;99.90
43458;DHT22;29046;54.184;18.680;2023-02-26T06:08:39;1.40;99.90
43458;DHT22;29046;54.184;18.680;2023-02-26T06:11:06;1.40;99.90
43458;DHT22;29046;54.184;18.680;2023-02-26T06:13:33;1.40;99.90
43458;DHT22;29046;54.184;18.680;2023-02-26T06:16:00;1.40;99.90
43458;DHT22;29046;54.184;18.680;2023-02-26T06:18:28;1.40;99.90
43458;DHT22;29046;54.184;18.680;2023-02-26T06:20:55;1.40;99.90
43458;DHT22;29046;54.184;18.680;2023-02-26T06:23:22;1.50;99.90
43458;DHT22;29046;54.184;18.680;2023-02-26T06:25:50;1.50;99.90
43458;DHT22;29046;54.184;18.680;2023-02-26T06:28:19;1.50;99.90
43458;DHT22;29046;54.184;18.680;2023-02-26T06:30:46;1.50;99.90
43458;DHT22;29046;54.184;18.680;2023-02-26T06:33:13;1.50;99.90
43458;DHT22;29046;54.184;18.680;2023-02-26T06:35:40;1.50;99.90
43458;DHT22;29046;54.184;18.680;2023-02-26T06:38:08;1.50;99.90
43458;DHT22;29046;54.184;18.680;2023-02-26T06:40:35;1.60;99.90
43458;DHT22;29046;54.184;18.680;2023-02-26T06:43:03;1.60;99.90
43458;DHT22;29046;54.184;18.680;2023-02-26T06:45:30;1.60;99.90
43458;DHT22;29046;54.184;18.680;2023-02-26T06:47:58;1.50;99.90
43458;DHT22;29046;54.184;18.680;2023-02-26T06:50:25;1.60;99.90
43458;DHT22;29046;54.184;18.680;2023-02-26T06:52:52;1.50;99.90
43458;DHT22;29046;54.184;18.680;2023-02-26T06:55:19;1.60;99.90
43458;DHT22;29046;54.184;18.680;2023-02-26T06:57:48;1.60;99.90
43458;DHT22;29046;54.184;18.680;2023-02-26T07:00:15;1.60;99.90
43458;DHT22;29046;54.184;18.680;2023-02-26T07:02:42;1.70;99.90
43458;DHT22;29046;54.184;18.680;2023-02-26T07:05:09;1.70;99.90
43458;DHT22;29046;54.184;18.680;2023-02-26T07:07:37;1.60;99.90
43458;DHT22;29046;54.184;18.680;2023-02-26T07:10:04;1.50;99.90
43458;DHT22;29046;54.184;18.680;2023-02-26T07:12:31;1.50;99.90
43458;DHT22;29046;54.184;18.680;2023-02-26T07:14:58;1.50;99.90
43458;DHT22;29046;54.184;18.680;2023-02-26T07:17:26;1.60;99.90
43458;DHT22;29046;54.184;18.680;2023-02-26T07:19:53;1.70;99.90
43458;DHT22;29046;54.184;18.680;2023-02-26T07:22:20;1.70;99.90
43458;DHT22;29046;54.184;18.680;2023-02-26T07:24:48;1.80;99.90
43458;DHT22;29046;54.184;18.680;2023-02-26T07:27:16;1.80;99.90
43458;DHT22;29046;54.184;18.680;2023-02-26T07:29:43;1.70;99.90
43458;DHT22;29046;54.184;18.680;2023-02-26T07:32:11;1.70;99.90
43458;DHT22;29046;54.184;18.680;2023-02-26T07:34:38;1.70;99.90
43458;DHT22;29046;54.184;18.680;2023-02-26T07:37:06;1.70;99.90
43458;DHT22;29046;54.184;18.680;2023-02-26T07:39:33;1.80;99.90
43458;DHT22;29046;54.184;18.680;2023-02-26T07:42:00;1.90;99.90
43458;DHT22;29046;54.184;18.680;2023-02-26T07:44:27;2.00;99.90
43458;DHT22;29046;54.184;18.680;2023-02-26T07:46:54;2.20;99.90
43458;DHT22;29046;54.184;18.680;2023-02-26T07:49:21;2.30;99.90
43458;DHT22;29046;54.184;18.680;2023-02-26T07:51:48;2.40;99.90
43458;DHT22;29046;54.184;18.680;2023-02-26T07:54:16;2.40;99.90
43458;DHT22;29046;54.184;18.680;2023-02-26T07:56:43;2.40;99.90
43458;DHT22;29046;54.184;18.680;2023-02-26T07:59:11;2.30;99.90
43458;DHT22;29046;54.184;18.680;2023-02-26T08:01:38;2.30;99.90
43458;DHT22;29046;54.184;18.680;2023-02-26T08:04:05;2.30;99.90
43458;DHT22;29046;54.184;18.680;2023-02-26T08:06:32;2.30;99.90
43458;DHT22;29046;54.184;18.680;2023-02-26T08:09:01;2.30;99.90
43458;DHT22;29046;54.184;18.680;2023-02-26T08:11:29;2.30;99.90
43458;DHT22;29046;54.184;18.680;2023-02-26T08:13:56;2.30;99.90
43458;DHT22;29046;54.184;18.680;2023-02-26T08:16:24;2.40;99.90
43458;DHT22;29046;54.184;18.680;2023-02-26T08:18:51;2.50;99.90
43458;DHT22;29046;54.184;18.680;2023-02-26T08:21:19;2.60;99.90
43458;DHT22;29046;54.184;18.680;2023-02-26T08:23:46;2.70;99.90
43458;DHT22;29046;54.184;18.680;2023-02-26T08:26:15;2.80;99.90
43458;DHT22;29046;54.184;18.680;2023-02-26T08:28:42;2.80;99.90
43458;DHT22;29046;54.184;18.680;2023-02-26T08:31:09;2.70;99.90
43458;DHT22;29046;54.184;18.680;2023-02-26T08:33:36;2.70;99.90
43458;DHT22;29046;54.184;18.680;2023-02-26T08:36:04;2.70;99.90
43458;DHT22;29046;54.184;18.680;2023-02-26T08:38:31;2.60;99.90
43458;DHT22;29046;54.184;18.680;2023-02-26T08:40:59;2.60;99.90
43458;DHT22;29046;54.184;18.680;2023-02-26T08:43:26;2.60;99.90
43458;DHT22;29046;54.184;18.680;2023-02-26T08:45:55;2.60;99.90
43458;DHT22;29046;54.184;18.680;2023-02-26T08:48:23;2.60;99.90
43458;DHT22;29046;54.184;18.680;2023-02-26T08:50:50;2.60;99.90
43458;DHT22;29046;54.184;18.680;2023-02-26T08:53:17;2.70;99.90
43458;DHT22;29046;54.184;18.680;2023-02-26T08:55:52;2.60;99.90
43458;DHT22;29046;54.184;18.680;2023-02-26T08:58:19;2.60;99.90
43458;DHT22;29046;54.184;18.680;2023-02-26T09:00:47;2.50;99.90
43458;DHT22;29046;54.184;18.680;2023-02-26T09:03:14;2.40;99.90
43458;DHT22;29046;54.184;18.680;2023-02-26T09:05:42;2.50;99.90
43458;DHT22;29046;54.184;18.680;2023-02-26T09:08:09;2.50;99.90
43458;DHT22;29046;54.184;18.680;2023-02-26T09:10:37;2.40;99.90
43458;DHT22;29046;54.184;18.680;2023-02-26T09:13:07;2.40;99.90
43458;DHT22;29046;54.184;18.680;2023-02-26T09:15:34;2.40;99.90
43458;DHT22;29046;54.184;18.680;2023-02-26T09:18:01;2.50;99.90
43458;DHT22;29046;54.184;18.680;2023-02-26T09:20:29;2.50;99.90
43458;DHT22;29046;54.184;18.680;2023-02-26T09:22:56;2.60;99.90
43458;DHT22;29046;54.184;18.680;2023-02-26T09:25:23;2.70;99.90
43458;DHT22;29046;54.184;18.680;2023-02-26T09:27:50;2.80;99.90
43458;DHT22;29046;54.184;18.680;2023-02-26T09:30:17;2.80;99.90
43458;DHT22;29046;54.184;18.680;2023-02-26T09:32:44;2.80;99.90
43458;DHT22;29046;54.184;18.680;2023-02-26T09:35:12;2.80;99.90
43458;DHT22;29046;54.184;18.680;2023-02-26T09:37:39;2.80;99.90
43458;DHT22;29046;54.184;18.680;2023-02-26T09:40:09;2.90;99.90
43458;DHT22;29046;54.184;18.680;2023-02-26T09:45:28;3.00;99.90
43458;DHT22;29046;54.184;18.680;2023-02-26T09:47:56;3.20;99.90
43458;DHT22;29046;54.184;18.680;2023-02-26T09:50:41;3.30;99.90
43458;DHT22;29046;54.184;18.680;2023-02-26T09:53:28;3.50;99.90
43458;DHT22;29046;54.184;18.680;2023-02-26T09:56:02;3.60;99.90
43458;DHT22;29046;54.184;18.680;2023-02-26T09:58:34;3.40;99.90
43458;DHT22;29046;54.184;18.680;2023-02-26T10:07:05;3.00;99.90
43458;DHT22;29046;54.184;18.680;2023-02-26T10:12:28;3.10;99.90
43458;DHT22;29046;54.184;18.680;2023-02-26T10:15:00;3.10;99.90
43458;DHT22;29046;54.184;18.680;2023-02-26T10:20:37;3.30;99.90
43458;DHT22;29046;54.184;18.680;2023-02-26T10:23:14;3.20;99.90
43458;DHT22;29046;54.184;18.680;2023-02-26T10:25:47;3.30;99.90
43458;DHT22;29046;54.184;18.680;2023-02-26T10:31:45;3.60;99.90
43458;DHT22;29046;54.184;18.680;2023-02-26T10:34:39;3.60;99.90
43458;DHT22;29046;54.184;18.680;2023-02-26T10:40:19;3.30;99.90
43458;DHT22;29046;54.184;18.680;2023-02-26T10:42:59;3.00;99.90
43458;DHT22;29046;54.184;18.680;2023-02-26T10:48:46;2.90;99.90
43458;DHT22;29046;54.184;18.680;2023-02-26T10:51:23;2.90;99.90
43458;DHT22;29046;54.184;18.680;2023-02-26T10:53:56;2.80;99.90
43458;DHT22;29046;54.184;18.680;2023-02-26T10:56:28;2.90;99.90
43458;DHT22;29046;54.184;18.680;2023-02-26T10:58:56;2.90;99.90
43458;DHT22;29046;54.184;18.680;2023-02-26T11:01:27;2.90;99.90
43458;DHT22;29046;54.184;18.680;2023-02-26T11:04:11;3.00;99.90
43458;DHT22;29046;54.184;18.680;2023-02-26T11:07:02;3.00;99.90
43458;DHT22;29046;54.184;18.680;2023-02-26T11:09:35;3.00;99.90
43458;DHT22;29046;54.184;18.680;2023-02-26T11:14:36;3.10;99.90
43458;DHT22;29046;54.184;18.680;2023-02-26T11:17:11;3.10;99.90
43458;DHT22;29046;54.184;18.680;2023-02-26T11:19:45;3.10;99.90
43458;DHT22;29046;54.184;18.680;2023-02-26T11:22:15;3.10;99.90
43458;DHT22;29046;54.184;18.680;2023-02-26T11:24:46;3.20;99.90
43458;DHT22;29046;54.184;18.680;2023-02-26T11:27:19;3.00;99.90
43458;DHT22;29046;54.184;18.680;2023-02-26T11:29:52;2.60;99.90
43458;DHT22;29046;54.184;18.680;2023-02-26T11:32:35;2.40;99.90
43458;DHT22;29046;54.184;18.680;2023-02-26T11:35:07;2.30;99.90
43458;DHT22;29046;54.184;18.680;2023-02-26T11:37:37;2.40;99.90
43458;DHT22;29046;54.184;18.680;2023-02-26T11:40:22;2.50;99.90
43458;DHT22;29046;54.184;18.680;2023-02-26T11:43:03;2.60;99.90
43458;DHT22;29046;54.184;18.680;2023-02-26T11:45:56;2.70;99.90
43458;DHT22;29046;54.184;18.680;2023-02-26T11:48:35;2.60;99.90
43458;DHT22;29046;54.184;18.680;2023-02-26T11:51:04;2.50;99.90
43458;DHT22;29046;54.184;18.680;2023-02-26T11:53:34;2.40;99.90
43458;DHT22;29046;54.184;18.680;2023-02-26T11:56:11;2.50;99.90
43458;DHT22;29046;54.184;18.680;2023-02-26T11:58:42;2.60;99.90
43458;DHT22;29046;54.184;18.680;2023-02-26T12:01:12;2.70;99.90
43458;DHT22;29046;54.184;18.680;2023-02-26T12:03:45;2.80;99.90
43458;DHT22;29046;54.184;18.680;2023-02-26T12:06:16;2.70;99.90
43458;DHT22;29046;54.184;18.680;2023-02-26T12:08:45;2.70;99.90
43458;DHT22;29046;54.184;18.680;2023-02-26T12:27:53;2.80;99.90
43458;DHT22;29046;54.184;18.680;2023-02-26T12:31:21;2.80;99.90
43458;DHT22;29046;54.184;18.680;2023-02-26T12:33:44;2.80;99.90
43458;DHT22;29046;54.184;18.680;2023-02-26T12:42:46;2.70;99.90
43458;DHT22;29046;54.184;18.680;2023-02-26T12:47:40;2.80;99.90
43458;DHT22;29046;54.184;18.680;2023-02-26T12:50:41;2.80;99.90
43458;DHT22;29046;54.184;18.680;2023-02-26T12:56:22;3.00;99.90
43458;DHT22;29046;54.184;18.680;2023-02-26T12:59:17;3.10;99.90
43458;DHT22;29046;54.184;18.680;2023-02-26T13:07:13;2.70;99.90
43458;DHT22;29046;54.184;18.680;2023-02-26T13:12:41;2.60;99.90
43458;DHT22;29046;54.184;18.680;2023-02-26T13:18:02;2.60;99.90
43458;DHT22;29046;54.184;18.680;2023-02-26T13:20:32;2.60;99.90
43458;DHT22;29046;54.184;18.680;2023-02-26T13:23:21;2.60;99.90
43458;DHT22;29046;54.184;18.680;2023-02-26T13:25:54;2.70;99.90
43458;DHT22;29046;54.184;18.680;2023-02-26T13:31:20;2.80;99.90
43458;DHT22;29046;54.184;18.680;2023-02-26T13:33:54;2.90;99.90
43458;DHT22;29046;54.184;18.680;2023-02-26T13:36:24;2.80;99.90
43458;DHT22;29046;54.184;18.680;2023-02-26T13:50:16;2.60;99.90
43458;DHT22;29046;54.184;18.680;2023-02-26T13:52:54;2.70;99.90
43458;DHT22;29046;54.184;18.680;2023-02-26T14:01:06;2.60;99.90
43458;DHT22;29046;54.184;18.680;2023-02-26T14:06:45;2.50;99.90
43458;DHT22;29046;54.184;18.680;2023-02-26T14:11:58;2.40;99.90
43458;DHT22;29046;54.184;18.680;2023-02-26T14:24:51;2.40;99.90
43458;DHT22;29046;54.184;18.680;2023-02-26T14:35:29;2.40;99.90
43458;DHT22;29046;54.184;18.680;2023-02-26T14:38:10;2.40;99.90
43458;DHT22;29046;54.184;18.680;2023-02-26T14:43:39;2.40;99.90
43458;DHT22;29046;54.184;18.680;2023-02-26T14:46:08;2.40;99.90
43458;DHT22;29046;54.184;18.680;2023-02-26T14:48:36;2.40;99.90
43458;DHT22;29046;54.184;18.680;2023-02-26T15:10:40;2.00;99.90
43458;DHT22;29046;54.184;18.680;2023-02-26T15:15:54;2.10;99.90
43458;DHT22;29046;54.184;18.680;2023-02-26T15:21:15;1.80;99.90
43458;DHT22;29046;54.184;18.680;2023-02-26T15:23:52;1.40;99.90
43458;DHT22;29046;54.184;18.680;2023-02-26T15:26:24;1.10;99.90
43458;DHT22;29046;54.184;18.680;2023-02-26T15:28:53;1.00;99.90
43458;DHT22;29046;54.184;18.680;2023-02-26T15:31:28;1.00;99.90
43458;DHT22;29046;54.184;18.680;2023-02-26T15:33:57;1.00;99.90
43458;DHT22;29046;54.184;18.680;2023-02-26T15:36:24;0.90;99.90
43458;DHT22;29046;54.184;18.680;2023-02-26T15:38:56;0.80;99.90
43458;DHT22;29046;54.184;18.680;2023-02-26T15:41:28;0.80;99.90
43458;DHT22;29046;54.184;18.680;2023-02-26T15:44:06;0.70;99.90
43458;DHT22;29046;54.184;18.680;2023-02-26T15:46:36;0.70;99.90
43458;DHT22;29046;54.184;18.680;2023-02-26T15:49:32;0.80;99.90
43458;DHT22;29046;54.184;18.680;2023-02-26T15:52:02;0.80;99.90
43458;DHT22;29046;54.184;18.680;2023-02-26T15:54:59;0.70;99.90
43458;DHT22;29046;54.184;18.680;2023-02-26T15:57:56;0.60;99.90
43458;DHT22;29046;54.184;18.680;2023-02-26T16:00:26;0.60;99.90
43458;DHT22;29046;54.184;18.680;2023-02-26T16:03:13;0.50;99.90
43458;DHT22;29046;54.184;18.680;2023-02-26T16:05:41;0.50;99.90
43458;DHT22;29046;54.184;18.680;2023-02-26T16:08:10;0.50;99.90
43458;DHT22;29046;54.184;18.680;2023-02-26T16:10:41;0.50;99.90
43458;DHT22;29046;54.184;18.680;2023-02-26T16:13:16;0.60;99.90
43458;DHT22;29046;54.184;18.680;2023-02-26T16:15:47;0.60;99.90
43458;DHT22;29046;54.184;18.680;2023-02-26T16:18:19;0.60;99.90
43458;DHT22;29046;54.184;18.680;2023-02-26T16:20:52;0.70;99.90
43458;DHT22;29046;54.184;18.680;2023-02-26T16:23:34;0.80;99.90
43458;DHT22;29046;54.184;18.680;2023-02-26T16:26:05;0.80;99.90
43458;DHT22;29046;54.184;18.680;2023-02-26T16:28:37;0.80;99.90
43458;DHT22;29046;54.184;18.680;2023-02-26T16:31:20;0.70;99.90
43458;DHT22;29046;54.184;18.680;2023-02-26T16:34:22;0.60;99.90
43458;DHT22;29046;54.184;18.680;2023-02-26T16:36:49;0.50;99.90
43458;DHT22;29046;54.184;18.680;2023-02-26T16:39:23;0.40;99.90
43458;DHT22;29046;54.184;18.680;2023-02-26T16:42:14;0.40;99.90
43458;DHT22;29046;54.184;18.680;2023-02-26T16:44:46;0.40;99.90
43458;DHT22;29046;54.184;18.680;2023-02-26T16:47:15;0.50;99.90
43458;DHT22;29046;54.184;18.680;2023-02-26T16:49:43;0.50;99.90
43458;DHT22;29046;54.184;18.680;2023-02-26T16:52:18;0.50;99.90
43458;DHT22;29046;54.184;18.680;2023-02-26T16:55:01;0.50;99.90
43458;DHT22;29046;54.184;18.680;2023-02-26T16:57:38;0.50;99.90
43458;DHT22;29046;54.184;18.680;2023-02-26T17:00:16;0.50;99.90
43458;DHT22;29046;54.184;18.680;2023-02-26T17:02:47;0.50;99.90
43458;DHT22;29046;54.184;18.680;2023-02-26T17:05:22;0.50;99.90
43458;DHT22;29046;54.184;18.680;2023-02-26T17:08:06;0.50;99.90
43458;DHT22;29046;54.184;18.680;2023-02-26T17:10:47;0.60;99.90
43458;DHT22;29046;54.184;18.680;2023-02-26T17:13:18;0.80;99.90
43458;DHT22;29046;54.184;18.680;2023-02-26T17:15:49;0.90;99.90
43458;DHT22;29046;54.184;18.680;2023-02-26T17:18:17;0.90;99.90
43458;DHT22;29046;54.184;18.680;2023-02-26T17:20:45;0.90;99.90
43458;DHT22;29046;54.184;18.680;2023-02-26T17:23:15;1.10;99.90
43458;DHT22;29046;54.184;18.680;2023-02-26T17:25:45;1.10;99.90
43458;DHT22;29046;54.184;18.680;2023-02-26T17:28:19;0.90;99.90
43458;DHT22;29046;54.184;18.680;2023-02-26T17:30:47;0.80;99.90
43458;DHT22;29046;54.184;18.680;2023-02-26T17:33:15;0.80;99.90
43458;DHT22;29046;54.184;18.680;2023-02-26T17:35:43;0.70;99.90
43458;DHT22;29046;54.184;18.680;2023-02-26T17:38:11;0.60;99.90
43458;DHT22;29046;54.184;18.680;2023-02-26T17:40:40;0.60;99.90
43458;DHT22;29046;54.184;18.680;2023-02-26T17:43:08;0.50;99.90
43458;DHT22;29046;54.184;18.680;2023-02-26T17:45:37;0.60;99.90
43458;DHT22;29046;54.184;18.680;2023-02-26T17:48:06;0.50;99.90
43458;DHT22;29046;54.184;18.680;2023-02-26T17:53:03;0.50;99.90
43458;DHT22;29046;54.184;18.680;2023-02-26T17:55:31;0.50;99.90
43458;DHT22;29046;54.184;18.680;2023-02-26T17:57:59;0.50;99.90
43458;DHT22;29046;54.184;18.680;2023-02-26T18:00:26;0.50;99.90
43458;DHT22;29046;54.184;18.680;2023-02-26T18:02:53;0.50;99.90
43458;DHT22;29046;54.184;18.680;2023-02-26T18:05:21;0.40;99.90
43458;DHT22;29046;54.184;18.680;2023-02-26T18:07:48;0.50;99.90
43458;DHT22;29046;54.184;18.680;2023-02-26T18:10:20;0.40;99.90
43458;DHT22;29046;54.184;18.680;2023-02-26T18:12:50;0.40;99.90
43458;DHT22;29046;54.184;18.680;2023-02-26T18:15:18;0.40;99.90
43458;DHT22;29046;54.184;18.680;2023-02-26T18:17:45;0.40;99.90
43458;DHT22;29046;54.184;18.680;2023-02-26T18:20:20;0.40;99.90
43458;DHT22;29046;54.184;18.680;2023-02-26T18:22:51;0.40;99.90
43458;DHT22;29046;54.184;18.680;2023-02-26T18:25:18;0.50;99.90
43458;DHT22;29046;54.184;18.680;2023-02-26T18:27:47;0.50;99.90
43458;DHT22;29046;54.184;18.680;2023-02-26T18:30:21;0.50;99.90
43458;DHT22;29046;54.184;18.680;2023-02-26T18:32:49;0.50;99.90
43458;DHT22;29046;54.184;18.680;2023-02-26T18:35:16;0.50;99.90
43458;DHT22;29046;54.184;18.680;2023-02-26T18:37:44;0.60;99.90
43458;DHT22;29046;54.184;18.680;2023-02-26T18:40:17;0.60;99.90
43458;DHT22;29046;54.184;18.680;2023-02-26T18:42:45;0.70;99.90
43458;DHT22;29046;54.184;18.680;2023-02-26T18:45:12;0.70;99.90
43458;DHT22;29046;54.184;18.680;2023-02-26T18:47:40;0.80;99.90
43458;DHT22;29046;54.184;18.680;2023-02-26T18:50:12;0.80;99.90
43458;DHT22;29046;54.184;18.680;2023-02-26T18:52:41;0.90;99.90
43458;DHT22;29046;54.184;18.680;2023-02-26T18:55:10;0.90;99.90
43458;DHT22;29046;54.184;18.680;2023-02-26T18:57:39;0.90;99.90
43458;DHT22;29046;54.184;18.680;2023-02-26T19:00:12;0.90;99.90
43458;DHT22;29046;54.184;18.680;2023-02-26T19:02:41;0.90;99.90
43458;DHT22;29046;54.184;18.680;2023-02-26T19:05:10;0.90;99.90